• Join FlightAware (Why Join?)
  • Login
  • US Flag 
10:00AM EDT


 

Airport Tracker/Info


-or-


 

Live Flight TrackerFlight Track Log ✈ UAL335 ✈ 03-May-2013 ✈ KIAH - KLAX

Flight Track Log - Related Links

Times and Time Zones

All times are in EDT time to prevent confusion due to time zone crossing. See the UAL335 flight status page for this flight to view local times or setup timezone preferences in your user account.

Time Position Orientation Groundspeed Altitude Reporting Facility
EDT Latitude Longitude Course Direction KTS MPH feet Rate Location/Type
03:54PM 29.9722 -95.3664 259° West 182 209 1,900  Level Houston Center
03:55PM 29.9672 -95.4206 264° West 202 232 3,700 2,160 Climbing Houston Center
03:56PM 29.9892 -95.4878 291° West 227 261 6,000 2,700 Climbing Houston Center
03:57PM 30.0225 -95.6802 276° West  Level FlightAware Approximate
03:57PM 30.0111 -95.5633 289° West 247 284 9,300  Level Houston Center
03:58PM 30.0330 -95.7966 276° West  Level FlightAware Approximate
03:58PM 30.0208 -95.6478 278° West 263 303 11,500  Level Houston Center
03:59PM 30.0428 -95.9130 276° West  Level FlightAware Approximate
03:59PM 30.0331 -95.7478 278° West 315 362 13,100  Level Houston Center
04:00PM 30.0494 -95.8839 278° West 356 410 15,800 2,220 Climbing Houston Center
04:02PM 30.0639 -96.0008 278° West 369 425 17,800 1,920 Climbing Houston Center
04:03PM 30.0786 -96.1225 278° West 379 436 19,800 1,920 Climbing Houston Center
04:04PM 30.0989 -96.2442 281° West 387 445 21,800 1,800 Climbing Houston Center
04:05PM 30.1175 -96.3692 280° West 396 456 23,600 1,680 Climbing Houston Center
04:06PM 30.1372 -96.5036 280° West 399 459 25,300 1,680 Climbing Houston Center
04:07PM 30.1586 -96.6308 281° West 399 459 27,100 1,560 Climbing Houston Center
04:08PM 30.1800 -96.7808 279° West 400 460 28,600 1,440 Climbing Houston Center
04:09PM 30.2006 -96.9097 280° West 402 463 30,100 1,440 Climbing Houston Center
04:10PM 30.2186 -97.0383 279° West 400 460 31,600 900 Climbing Houston Center
04:11PM 30.2375 -97.1669 280° West 400 460 32,000 180 Climbing Houston Center
04:12PM 30.2564 -97.2922 280° West 394 453 32,000  Level Houston Center
04:13PM 30.2753 -97.4203 280° West 396 456 32,000  Level Houston Center
04:14PM 30.2928 -97.5478 279° West 397 457 32,000  Level Houston Center
04:15PM 30.3117 -97.6797 279° West 405 466 32,000  Level Houston Center
04:16PM 30.3297 -97.8092 279° West 402 463 32,000  Level Houston Center
04:17PM 30.3575 -97.9583 282° West 399 459 32,000  Level Houston Center
04:18PM 30.3856 -98.0864 284° West 405 466 32,000  Level Houston Center
04:19PM 30.4122 -98.2139 284° West 404 465 32,000  Level Houston Center
04:20PM 30.4400 -98.3406 284° West 403 464 32,000  Level Houston Center
04:21PM 30.4656 -98.4689 283° West 404 465 32,000  Level Houston Center
04:22PM 30.4908 -98.5972 283° West 404 465 32,000  Level Houston Center
04:23PM 30.5172 -98.7267 283° West 407 468 32,000  Level Houston Center
04:24PM 30.5500 -98.8783 284° West 411 473 32,000  Level Houston Center
04:25PM 30.5758 -99.0069 283° West 408 470 32,000  Level Houston Center
04:26PM 30.6031 -99.1428 283° West 410 472 32,000  Level Houston Center
04:27PM 30.6289 -99.2711 283° West 411 473 32,000  Level Houston Center
04:28PM 30.6539 -99.4003 283° West 412 474 32,000  Level Houston Center
04:29PM 30.6792 -99.5297 283° West 413 475 32,000  Level Houston Center
04:30PM 30.7050 -99.6600 283° West 416 479 32,000  Level Houston Center
04:32PM 30.7358 -99.8158 283° West 416 479 32,000  Level Houston Center
04:33PM 30.7628 -99.9478 283° West 420 483 32,000  Level Houston Center
04:34PM 30.7864 -100.0767 282° West 414 476 32,000 -60 Level Houston Center
04:35PM 30.8119 -100.2069 283° West 414 476 31,900  Descending Houston Center
04:36PM 30.8369 -100.3369 283° West 415 478 32,000  Climbing Houston Center
04:37PM 30.8608 -100.4700 282° West 432 497 32,000  Level Houston Center
04:38PM 30.8903 -100.6286 282° West 425 489 32,000  Level Houston Center
04:39PM 30.9161 -100.7608 283° West 422 486 32,000  Level Houston Center
04:40PM 30.9411 -100.8933 282° West 423 487 32,000  Level Houston Center
04:41PM 30.9650 -101.0289 282° West 438 504 32,000  Level Houston Center
04:42PM 30.9894 -101.1608 282° West 425 489 32,000  Level Houston Center
04:43PM 31.0225 -101.3189 284° West 423 487 32,000  Level Houston Center
04:44PM 31.0497 -101.4858 281° West 424 488 32,000  Level Albuquerque Center
04:45PM 31.0731 -101.6211 281° West 425 489 32,000  Level Albuquerque Center
04:46PM 31.0975 -101.7575 282° West 428 493 32,000  Level Albuquerque Center
04:47PM 31.1208 -101.8919 281° West 426 490 32,000  Level Albuquerque Center
04:48PM 31.1453 -102.0369 281° West 436 502 32,000  Level Albuquerque Center
04:49PM 31.1694 -102.1731 282° West 431 496 32,000  Level Albuquerque Center
04:50PM 31.1936 -102.3100 282° West 430 495 32,000  Level Albuquerque Center
04:51PM 31.2219 -102.4756 281° West 432 497 32,000 -60 Level Albuquerque Center
04:52PM 31.2453 -102.6144 281° West 426 490 31,900  Descending Albuquerque Center
04:53PM 31.2689 -102.7517 281° West 428 493 32,000  Climbing Albuquerque Center
04:54PM 31.2917 -102.8881 281° West 429 494 32,000  Level Albuquerque Center
04:56PM 31.3150 -103.0247 281° West 429 494 32,000  Level Albuquerque Center
04:57PM 31.3372 -103.1622 281° West 430 495 32,000  Level Albuquerque Center
04:58PM 31.3600 -103.3000 281° West 432 497 32,000  Level Albuquerque Center
04:59PM 31.3822 -103.4358 281° West 428 493 32,000  Level Albuquerque Center
05:00PM 31.4094 -103.6011 281° West 430 495 32,000  Level Albuquerque Center
05:01PM 31.4308 -103.7361 281° West 426 490 32,000  Level Albuquerque Center
05:02PM 31.4531 -103.8789 280° West 423 487 32,000  Level Albuquerque Center
05:03PM 31.4753 -104.0131 281° West 421 484 32,000  Level Albuquerque Center
05:04PM 31.4961 -104.1472 280° West 420 483 32,000  Level Albuquerque Center
05:05PM 31.5186 -104.2797 281° West 418 481 32,000  Level Albuquerque Center
05:06PM 31.5386 -104.4125 280° West 416 479 32,000  Level Albuquerque Center
05:07PM 31.5597 -104.5461 281° West 419 482 32,000  Level Albuquerque Center
05:08PM 31.5961 -104.7019 285° West 417 480 32,000  Level Albuquerque Center
05:09PM 31.6311 -104.8281 288° West 412 474 32,000  Level Albuquerque Center
05:10PM 31.6636 -104.9581 286° West 416 479 32,000  Level Albuquerque Center
05:11PM 31.6972 -105.0869 287° West 416 479 32,000  Level Albuquerque Center
05:12PM 31.7289 -105.2164 286° West 415 478 32,000  Level Albuquerque Center
05:13PM 31.7678 -105.3719 286° West 417 480 32,000  Level Albuquerque Center
05:14PM 31.8014 -105.5000 287° West 411 473 32,000  Level Albuquerque Center
05:15PM 31.8356 -105.6303 287° West 416 479 32,000  Level Albuquerque Center
05:16PM 31.8681 -105.7586 287° West 412 474 32,000 -60 Level Albuquerque Center
05:17PM 31.9022 -105.8881 287° West 415 478 31,900 -60 Descending Albuquerque Center
05:18PM 31.9403 -106.0353 287° West 418 481 31,900  Level Albuquerque Center
05:19PM 31.9731 -106.1658 287° West 417 480 31,900  Level Albuquerque Center
05:20PM 32.0053 -106.2961 286° West 416 479 32,000  Climbing Albuquerque Center
05:21PM 32.0383 -106.4269 287° West 417 480 32,000  Level Albuquerque Center
05:22PM 32.0711 -106.5578 287° West 417 480 32,000  Level Albuquerque Center
05:23PM 32.1047 -106.6878 287° West 415 478 32,000  Level Albuquerque Center
05:24PM 32.1444 -106.8453 287° West 416 479 32,000  Level Albuquerque Center
05:25PM 32.1794 -106.9836 287° West 418 481 32,000  Level Albuquerque Center
05:26PM 32.2103 -107.1142 286° West 415 478 32,000  Level Albuquerque Center
05:27PM 32.2386 -107.2347 286° West 420 483 32,000  Level Albuquerque Center
05:29PM 32.2739 -107.3933 285° West 420 483 32,000  Level Albuquerque Center
05:30PM 32.3039 -107.5119 287° West 418 481 32,000 -60 Level Albuquerque Center
05:31PM 32.3358 -107.6450 286° West 418 481 31,900  Descending Albuquerque Center
05:32PM 32.3672 -107.7786 286° West 420 483 32,000  Climbing Albuquerque Center
05:33PM 32.4053 -107.9378 286° West 419 482 32,000  Level Albuquerque Center
05:34PM 32.4372 -108.0708 286° West 420 483 32,000  Level Albuquerque Center
05:35PM 32.4689 -108.2092 285° West 419 482 32,000  Level Albuquerque Center
05:36PM 32.4994 -108.3406 285° West 418 481 32,000  Level Albuquerque Center
05:37PM 32.5306 -108.4739 286° West 421 484 32,000  Level Albuquerque Center
05:38PM 32.5614 -108.6061 285° West 419 482 32,000  Level Albuquerque Center
05:39PM 32.5917 -108.7392 285° West 419 482 32,000  Level Albuquerque Center
05:40PM 32.6228 -108.8733 285° West 421 484 32,000  Level Albuquerque Center
05:41PM 32.6597 -109.0350 285° West 424 488 32,000  Level Albuquerque Center
05:42PM 32.6894 -109.1692 285° West 420 483 32,000  Level Albuquerque Center
05:43PM 32.7194 -109.3044 285° West 422 486 32,000  Level Albuquerque Center
05:44PM 32.7500 -109.4378 285° West 420 483 32,000  Level Albuquerque Center
05:45PM 32.7797 -109.5722 285° West 420 483 32,000  Level Albuquerque Center
05:46PM 32.8103 -109.7072 285° West 423 487 32,000  Level Albuquerque Center
05:47PM 32.8447 -109.8678 284° West 421 484 32,000  Level Albuquerque Center
05:48PM 32.8742 -110.0019 285° West 421 484 32,000  Level Albuquerque Center
05:49PM 32.9058 -110.1378 286° West 427 491 32,000  Level Albuquerque Center
05:50PM 32.9350 -110.2722 285° West 426 490 32,000  Level Albuquerque Center
05:51PM 32.9639 -110.4078 284° West 426 490 32,000  Level Albuquerque Center
05:52PM 32.9933 -110.5431 285° West 426 490 32,000  Level Albuquerque Center
05:53PM 33.0278 -110.7053 284° West 425 489 32,000  Level Albuquerque Center
05:54PM 33.0558 -110.8408 284° West 425 489 32,000  Level Albuquerque Center
05:55PM 33.0936 -110.9728 289° West 423 487 32,000  Level Albuquerque Center
05:56PM 33.1367 -111.1233 289° West 425 489 32,000  Level Albuquerque Center
05:57PM 33.1736 -111.2572 288° West 426 490 32,000  Level Albuquerque Center
05:58PM 33.2136 -111.4019 288° West 427 491 32,000  Level Albuquerque Center
05:59PM 33.2517 -111.5358 289° West 427 491 32,000  Level Albuquerque Center
06:01PM 33.3036 -111.7100 290° West 428 493 32,000  Level Los Angeles Center
06:01PM 33.3256 -111.7906 288° West 435 501 32,000  Level Albuquerque Center
06:03PM 33.3697 -111.9528 288° West 431 496 32,000  Level Albuquerque Center
06:04PM 33.4083 -112.0872 289° West 429 494 32,000  Level Albuquerque Center
06:05PM 33.4464 -112.2239 288° West 433 498 32,000  Level Albuquerque Center
06:06PM 33.4878 -112.3750 288° West 431 496 32,000  Level Albuquerque Center
06:07PM 33.5261 -112.5125 289° West 435 501 32,000  Level Albuquerque Center
06:08PM 33.5594 -112.6325 288° West 434 499 32,000  Level Albuquerque Center
06:09PM 33.6044 -112.7978 288° West 437 503 32,000  Level Albuquerque Center
06:10PM 33.6422 -112.9361 288° West 438 504 32,000 -60 Level Albuquerque Center
06:11PM 33.6797 -113.0767 288° West 442 509 31,900  Descending Albuquerque Center
06:12PM 33.7167 -113.2156 288° West 442 509 32,000  Climbing Albuquerque Center
06:13PM 33.7547 -113.3556 288° West 442 509 32,000  Level Albuquerque Center
06:14PM 33.7919 -113.4942 288° West 440 506 32,000  Level Albuquerque Center
06:15PM 33.8353 -113.6628 287° West 441 507 32,000  Level Albuquerque Center
06:16PM 33.8722 -113.8053 287° West 445 512 32,000  Level Albuquerque Center
06:17PM 33.9072 -113.9464 287° West 443 510 32,000  Level Albuquerque Center
06:18PM 33.9347 -114.0903 283° West 444 511 32,000  Level Albuquerque Center
06:19PM 33.9469 -114.2408 276° West 455 524 32,000 -60 Level Albuquerque Center
06:20PM 33.9656 -114.3875 279° West 450 518 31,900  Descending Albuquerque Center
06:21PM 33.9842 -114.5067 281° West 446 513 32,000  Climbing Los Angeles Center
06:22PM 34.0017 -114.6558 278° West 449 517 32,000 -60 Level Los Angeles Center
06:23PM 34.0186 -114.8042 278° West 450 518 31,900  Descending Los Angeles Center
06:24PM 34.0333 -114.9525 277° West 449 517 32,000  Climbing Los Angeles Center
06:25PM 34.0486 -115.1019 277° West 451 519 32,000 -60 Level Los Angeles Center
06:26PM 34.0664 -115.2814 277° West 453 521 31,900  Descending Los Angeles Center
06:27PM 34.0811 -115.4306 277° West 452 520 32,000 -480 Climbing Los Angeles Center
06:28PM 34.0958 -115.5803 277° West 453 521 31,000 -1,020 Descending Los Angeles Center
06:29PM 34.1092 -115.7303 276° West 454 522 30,000 -1,080 Descending Los Angeles Center
06:30PM 34.0967 -115.8817 264° West 458 527 28,800 -1,020 Descending Los Angeles Center
06:31PM 34.0744 -116.0292 260° West 451 519 28,000 -840 Descending Los Angeles Center
06:32PM 34.0481 -116.2064 260° West 450 518 27,100 -780 Descending Los Angeles Center
06:33PM 34.0261 -116.3528 260° West 447 514 26,500 -540 Descending Los Angeles Center
06:34PM 34.0047 -116.4967 260° West 441 507 26,000 -780 Descending Los Angeles Center
06:35PM 33.9933 -116.6414 265° West 438 504 24,900 -1,860 Descending Los Angeles Center
06:36PM 33.9825 -116.7731 264° West 407 468 22,200 -2,580 Descending Los Angeles Center
06:37PM 33.9736 -116.8908 265° West 364 419 19,700 -2,520 Descending Los Angeles Center
06:38PM 33.9667 -116.9500 262° West 347 399 18,700 -1,560 Descending Southern California TRACON
06:39PM 33.9500 -117.0667 260° West 332 382 17,600 -1,140 Descending Southern California TRACON
06:40PM 33.9500 -117.1667 270° West 314 361 16,500 -960 Descending Southern California TRACON
06:41PM 33.9333 -117.2833 260° West 306 352 15,600 -960 Descending Southern California TRACON
06:42PM 33.9333 -117.3833 270° West 307 353 14,600 -1,320 Descending Southern California TRACON
06:43PM 33.9667 -117.4667 296° West 275 316 13,200 -1,440 Descending Southern California TRACON
06:44PM 34.0000 -117.5500 296° West 272 313 11,800 -1,380 Descending Southern California TRACON
06:45PM 34.0167 -117.6333 284° West 313 360 10,500 -960 Descending Southern California TRACON
06:46PM 34.0000 -117.7333 259° West 271 312 9,800 -960 Descending Southern California TRACON
06:47PM 34.0000 -117.8167 270° West 269 310 8,600 -1,200 Descending Southern California TRACON
06:48PM 33.9833 -117.9167 259° West 257 296 7,600 -1,080 Descending Southern California TRACON
06:49PM 33.9833 -117.9833 270° West 229 264 6,500 -1,140 Descending Southern California TRACON
06:50PM 33.9667 -118.0500 253° West 201 231 5,400 -900 Descending Southern California TRACON
06:51PM 33.9667 -118.1167 270° West 182 209 4,700 -840 Descending Southern California TRACON
06:52PM 33.9667 -118.1833 270° West 181 208 3,800 -900 Descending Southern California TRACON